Aviation Digital Data Service (ADDS)

Output produced by METARs form (1459 UTC 28 June 2016)
found at http://www.aviationweather.gov/adds/metars/
 
KTHV 281253Z AUTO 00000KT 2 1/2SM BR OVC005 22/21 A2995 RMK AO2 SLP141 T02220206
KTHV 281248Z AUTO 35003KT 2 1/2SM BR OVC005 22/21 A2995 RMK AO2
KTHV 281236Z AUTO 00000KT 2SM BR OVC005 22/21 A2995 RMK AO2 T02220206
KTHV 281227Z AUTO 00000KT 2 1/2SM BR OVC006 22/21 A2995 RMK AO2 T02220206
KTHV 281153Z AUTO 13003KT 4SM BR OVC006 22/20 A2994 RMK AO2 SLP137 70018 T02170200 10217 20183 50005
KTHV 281124Z AUTO 00000KT 5SM BR OVC007 22/20 A2995 RMK AO2 T02170200
KTHV 281053Z AUTO 00000KT 6SM BR OVC008 21/19 A2994 RMK AO2 SLP138 T02110194
KTHV 281027Z AUTO 00000KT 5SM BR OVC009 21/19 A2994 RMK AO2 T02060194
KTHV 280953Z AUTO 00000KT 7SM OVC010 20/19 A2994 RMK AO2 SLP135 T02000189
KTHV 280853Z AUTO 00000KT 5SM BR BKN013 18/18 A2993 RMK AO2 SLP134 T01830178 56004
KTHV 280849Z AUTO 00000KT 5SM BR BKN013 19/18 A2993 RMK AO2
KTHV 280753Z AUTO 00000KT 8SM CLR 19/18 A2993 RMK AO2 SLP134 T01940183
KTHV 280653Z AUTO 00000KT 10SM FEW046 SCT070 20/19 A2994 RMK AO2 SLP137 T02000189
KTHV 280553Z AUTO 00000KT 10SM FEW070 22/19 A2995 RMK AO2 SLP139 T02170194 10250 20211 58010
KTHV 280453Z AUTO 00000KT 10SM CLR 22/19 A2996 RMK AO2 SLP142 T02220194 402830150
KTHV 280353Z AUTO VRB03KT 10SM CLR 22/20 A2997 RMK AO2 SLP147 T02220200
KTHV 280253Z AUTO 00000KT 10SM BKN050 22/20 A2998 RMK AO2 SLP150 T02220200 50002
KTHV 280153Z AUTO 17003KT 10SM CLR 23/21 A2998 RMK AO2 SLP150 T02280206
KTHV 280053Z AUTO 00000KT 10SM CLR 24/21 A2997 RMK AO2 SLP147 T02390206
KTHV 272353Z AUTO 15004KT 9SM FEW065 25/21 A2997 RMK AO2 SLP147 60018 T02500211 10267 20228 55002
KTHV 272253Z AUTO 18003KT 10SM SCT070 26/22 A2997 RMK AO2 SLP147 T02560217
KTHV 272153Z AUTO VRB05KT 10SM BKN110 25/22 A2997 RMK AO2 SLP147 T02500217
KTHV 272053Z AUTO 21004KT 10SM FEW065 SCT110 25/22 A2998 RMK AO2 SLP150 60018 T02500217 58012
KTHV 271953Z AUTO 22004KT 10SM SCT055 BKN065 23/21 A2999 RMK AO2 SLP156 T02330211
KTHV 271853Z AUTO 21006KT 10SM BKN044 OVC055 23/21 A3001 RMK AO2 RAB20E51 SLP161 P0018 T02330211
KTHV 271840Z AUTO 21005KT 3SM -RA BR SCT035 OVC046 23/21 A3001 RMK AO2 RAB20 P0018 T02280211
KTHV 271837Z AUTO 21004KT 1 1/4SM -RA BR FEW035 OVC046 23/21 A3001 RMK AO2 RAB20 P0018 T02280211
KTHV 271827Z AUTO 25006KT 3/4SM +RA FEW019 BKN048 OVC060 23/21 A3002 RMK AO2 RAB20 P0013 T02330206
KTHV 271824Z AUTO 24009KT 1 1/2SM +RA FEW019 SCT037 OVC050 24/20 A3002 RMK AO2 RAB20 P0008 T02390200
KTHV 271753Z AUTO 26006KT 10SM SCT037 OVC049 27/19 A3001 RMK AO2 LTG DSNT SW SLP162 T02670194 10283 20206 58014
KTHV 271653Z AUTO VRB04KT 10SM FEW048 SCT065 BKN090 28/19 A3003 RMK AO2 SLP167 T02780189
KTHV 271553Z AUTO 21008KT 10SM SCT060 27/18 A3004 RMK AO2 SLP171 T02670183
KTHV 271453Z AUTO 23009KT 10SM CLR 26/17 A3005 RMK AO2 SLP175 T02560172 58013
KTHV 271353Z AUTO 10SM FEW065 23/17 A3006 RMK AO2 SLP179 T02330172
KTHV 271253Z AUTO VRB04KT 10SM SCT070 22/17 A3008 RMK AO2 SLP186 T02220167
KTHV 271153Z AUTO VRB05KT 10SM BKN065 21/17 A3009 RMK AO2 SLP188 T02110167 10211 20150 55001
KTHV 271053Z AUTO 00000KT 10SM CLR 19/16 A3009 RMK AO2 SLP186 T01890161
KTHV 270953Z AUTO 00000KT 10SM CLR 17/15 A3009 RMK AO2 SLP186 T01720150
KTHV 270853Z AUTO 00000KT 10SM CLR 17/14 A3009 RMK AO2 SLP189 T01670139 56010
KTHV 270753Z AUTO 00000KT 10SM CLR 16/13 A3010 RMK AO2 SLP193 T01560133
KTHV 270653Z AUTO 00000KT 10SM CLR 16/13 A3011 RMK AO2 SLP195 T01560133
KTHV 270553Z AUTO 00000KT 10SM CLR 16/14 A3012 RMK AO2 SLP200 T01560139 10256 20150 58004
KTHV 270453Z AUTO 00000KT 10SM CLR 17/14 A3013 RMK AO2 SLP204 T01670139 402890139
KTHV 270353Z AUTO 00000KT 10SM CLR 20/13 A3015 RMK AO2 SLP206 T02000128